Time;durP1;ratioP1;P1;durP2;ratioP2;P2;SDS_P1;SDS_P2;PMS_P1;PMS_P2;Temp;Humidity;BMP_temperature;BMP_pressure;BME280_temperature;BME280_humidity;BME280_pressure;Samples;Min_cycle;Max_cycle;Signal;HPM_P1;HPM_P2
2023/02/20 00:01:38;;;;;;;3.67;3.37;;;11.50;98.30;;;;;;10421710;28;20218;-79
2023/02/20 00:06:40;;;;;;;6.33;3.60;;;11.50;98.50;;;;;;10463297;28;20269;-80
2023/02/20 00:11:44;;;;;;;5.63;4.40;;;11.60;98.10;;;;;;10461771;28;20241;-79
2023/02/20 00:16:47;;;;;;;5.57;4.10;;;11.50;98.20;;;;;;10465023;28;20226;-79
2023/02/20 00:21:50;;;;;;;7.00;4.63;;;11.50;98.20;;;;;;10443050;28;20314;-79
2023/02/20 00:26:54;;;;;;;6.37;4.47;;;11.50;97.80;;;;;;10431745;28;20624;-80
2023/02/20 00:31:57;;;;;;;4.50;4.10;;;11.50;97.90;;;;;;10413931;28;20703;-80
2023/02/20 00:37:00;;;;;;;5.67;4.07;;;11.50;98.10;;;;;;10413231;28;20226;-80
2023/02/20 00:42:03;;;;;;;5.40;4.73;;;11.50;97.50;;;;;;10431602;28;20229;-80
2023/02/20 00:47:05;;;;;;;6.07;4.60;;;11.50;98.30;;;;;;10414960;28;20232;-80
2023/02/20 00:52:08;;;;;;;5.10;4.00;;;11.40;98.50;;;;;;10432087;28;20222;-80
2023/02/20 00:57:12;;;;;;;7.87;4.20;;;11.50;98.40;;;;;;10420017;28;20210;-79
2023/02/20 01:02:14;;;;;;;4.80;4.37;;;11.50;98.40;;;;;;10440201;28;20250;-80
2023/02/20 01:07:16;;;;;;;4.77;4.37;;;11.40;98.40;;;;;;10431966;28;20199;-80
2023/02/20 01:12:20;;;;;;;5.90;4.63;;;11.40;98.40;;;;;;10412010;28;20214;-79
2023/02/20 01:17:22;;;;;;;6.83;4.30;;;11.40;98.10;;;;;;10428643;28;20218;-79
2023/02/20 01:22:24;;;;;;;7.27;4.80;;;11.30;98.20;;;;;;10466719;28;20256;-79
2023/02/20 01:27:27;;;;;;;6.90;4.73;;;11.30;97.80;;;;;;10450998;28;20673;-79
2023/02/20 01:32:29;;;;;;;6.77;4.10;;;11.20;97.60;;;;;;10434043;28;20678;-79
2023/02/20 01:37:32;;;;;;;5.73;4.70;;;11.10;97.80;;;;;;10464421;28;20309;-79
2023/02/20 01:42:37;;;;;;;5.40;4.90;;;11.00;98.10;;;;;;10456220;28;20213;-79
2023/02/20 01:47:40;;;;;;;6.70;4.60;;;11.00;98.10;;;;;;10450677;28;20598;-78
2023/02/20 01:52:45;;;;;;;4.83;4.40;;;10.90;98.00;;;;;;10444579;28;20745;-78
2023/02/20 01:57:53;;;;;;;5.90;4.57;;;10.90;98.30;;;;;;10442888;28;20282;-79
2023/02/20 02:02:59;;;;;;;8.03;4.70;;;10.90;98.10;;;;;;10432441;28;20320;-79
2023/02/20 02:08:04;;;;;;;5.93;4.40;;;10.90;97.90;;;;;;10430632;28;20194;-79
2023/02/20 02:13:07;;;;;;;6.23;4.43;;;10.80;97.80;;;;;;10458231;28;20225;-79
2023/02/20 02:18:34;;;;;;;6.60;4.40;;;10.80;97.90;;;;;;10440289;28;20697;-79
2023/02/20 02:24:05;;;;;;;5.43;3.90;;;10.80;97.60;;;;;;10494223;22;20220;-81
2023/02/20 02:29:42;;;;;;;8.00;3.80;;;10.80;97.20;;;;;;10458621;28;20221;-83
2023/02/20 02:35:08;;;;;;;6.23;3.90;;;10.80;97.00;;;;;;10471032;28;20595;-83
2023/02/20 02:40:16;;;;;;;8.43;4.30;;;10.80;97.30;;;;;;10466153;28;20204;-83
2023/02/20 02:45:28;;;;;;;4.33;4.00;;;10.80;96.80;;;;;;10484811;28;20218;-83
2023/02/20 02:50:35;;;;;;;5.00;4.03;;;10.70;97.20;;;;;;10477200;28;20220;-83
2023/02/20 02:55:38;;;;;;;4.47;3.90;;;10.60;97.20;;;;;;10475426;28;20312;-83
2023/02/20 03:00:47;;;;;;;3.97;3.63;;;10.60;97.40;;;;;;10499986;28;20228;-83
2023/02/20 03:05:54;;;;;;;4.23;3.80;;;10.60;97.40;;;;;;10492169;28;20182;-83
2023/02/20 03:11:01;;;;;;;6.67;4.13;;;10.50;97.40;;;;;;10482616;28;20220;-83
2023/02/20 03:16:04;;;;;;;7.30;3.53;;;10.50;97.60;;;;;;10469233;28;20222;-83
2023/02/20 03:21:11;;;;;;;5.93;4.43;;;10.40;97.70;;;;;;10473151;28;20263;-83
2023/02/20 03:26:21;;;;;;;4.57;4.17;;;10.40;97.90;;;;;;10447383;28;20609;-83
2023/02/20 03:31:31;;;;;;;6.10;3.90;;;10.30;97.80;;;;;;10451544;28;20708;-83
2023/02/20 03:47:30;;;;;;;6.10;4.77;;;10.40;98.00;;;;;;10445681;28;20197;-83
2023/02/20 03:52:32;;;;;;;5.37;4.33;;;10.40;98.00;;;;;;10479069;28;20253;-83
2023/02/20 03:57:41;;;;;;;6.57;5.20;;;10.40;98.20;;;;;;10476584;28;20226;-83
2023/02/20 04:02:48;;;;;;;4.70;4.10;;;10.50;98.00;;;;;;10502352;28;20271;-83
2023/02/20 04:07:57;;;;;;;5.80;4.67;;;10.50;98.10;;;;;;10461280;28;20235;-83
2023/02/20 04:13:05;;;;;;;5.80;4.13;;;10.50;97.60;;;;;;10465793;28;20217;-83
2023/02/20 04:18:11;;;;;;;6.33;4.20;;;10.40;97.70;;;;;;10434179;28;20224;-83
2023/02/20 04:23:17;;;;;;;4.83;4.23;;;10.20;97.80;;;;;;10471897;28;20225;-83
2023/02/20 04:28:21;;;;;;;8.93;5.77;;;10.10;98.10;;;;;;10469162;28;20196;-82
2023/02/20 04:33:43;;;;;;;4.80;4.40;;;10.00;98.20;;;;;;10468670;28;20220;-82
2023/02/20 04:38:53;;;;;;;5.60;4.30;;;9.90;98.70;;;;;;10485525;28;20205;-82
2023/02/20 04:49:24;;;;;;;8.70;5.30;;;9.70;98.70;;;;;;10490324;28;20203;-82
2023/02/20 04:54:29;;;;;;;8.27;7.47;;;9.70;98.60;;;;;;10483635;28;20696;-82
2023/02/20 04:59:33;;;;;;;12.60;8.40;;;9.70;98.80;;;;;;10483368;28;20628;-82
2023/02/20 05:04:35;;;;;;;7.07;5.57;;;9.70;99.10;;;;;;10469356;28;20210;-82
2023/02/20 05:09:37;;;;;;;9.83;6.00;;;9.70;98.80;;;;;;10493005;28;20203;-82
2023/02/20 05:14:41;;;;;;;5.47;4.60;;;9.70;98.30;;;;;;10502245;28;20217;-82
2023/02/20 05:19:43;;;;;;;7.07;6.47;;;9.70;98.20;;;;;;10499614;28;20602;-82
2023/02/20 05:24:45;;;;;;;7.50;4.30;;;9.50;98.30;;;;;;10461369;28;20284;-82
2023/02/20 05:29:50;;;;;;;8.87;5.90;;;9.40;98.50;;;;;;10470786;28;20645;-81
2023/02/20 05:34:55;;;;;;;8.17;5.40;;;9.30;98.40;;;;;;10487280;28;20230;-81
2023/02/20 05:39:58;;;;;;;7.40;5.80;;;9.10;98.70;;;;;;10459580;28;20247;-81
2023/02/20 05:45:03;;;;;;;6.90;5.63;;;9.00;99.10;;;;;;10496936;28;20629;-81
2023/02/20 05:50:06;;;;;;;7.20;5.63;;;9.00;99.80;;;;;;10492163;28;20246;-81
2023/02/20 05:55:08;;;;;;;5.80;5.17;;;9.10;99.60;;;;;;10484507;28;20219;-81
2023/02/20 06:00:15;;;;;;;6.93;5.13;;;9.20;99.30;;;;;;10482948;28;20213;-83
2023/02/20 06:05:18;;;;;;;6.00;4.90;;;9.30;99.10;;;;;;10472611;28;20196;-83
2023/02/20 06:10:20;;;;;;;5.40;4.87;;;9.30;98.50;;;;;;10490835;28;20229;-81
2023/02/20 06:15:24;;;;;;;8.17;4.80;;;9.20;98.50;;;;;;10468775;28;20215;-82
2023/02/20 06:20:26;;;;;;;5.47;4.97;;;9.10;98.70;;;;;;10507882;28;20217;-81
2023/02/20 06:25:28;;;;;;;8.17;5.03;;;8.90;98.70;;;;;;10500993;28;20225;-81
2023/02/20 06:30:32;;;;;;;9.30;5.60;;;8.90;98.90;;;;;;10459528;28;20257;-81
2023/02/20 06:35:34;;;;;;;11.20;5.80;;;8.80;98.80;;;;;;10504073;28;20252;-81
2023/02/20 06:40:36;;;;;;;6.17;5.40;;;8.80;99.10;;;;;;10488388;28;20696;-81
2023/02/20 06:45:39;;;;;;;9.70;5.90;;;8.70;99.10;;;;;;10507877;28;20243;-81
2023/02/20 06:50:41;;;;;;;7.27;5.37;;;8.80;99.10;;;;;;10467266;28;20670;-80
2023/02/20 06:55:43;;;;;;;6.03;5.27;;;8.80;99.00;;;;;;10481858;28;20259;-81
2023/02/20 07:00:47;;;;;;;6.40;5.40;;;8.80;99.30;;;;;;10488969;28;20681;-80
2023/02/20 07:05:49;;;;;;;6.63;5.50;;;8.80;99.30;;;;;;10490437;28;20186;-81
2023/02/20 07:10:53;;;;;;;9.13;5.30;;;8.90;99.00;;;;;;10515000;28;20218;-81
2023/02/20 07:15:57;;;;;;;5.97;5.30;;;9.00;99.00;;;;;;10517732;28;20288;-81
2023/02/20 07:20:59;;;;;;;7.47;5.23;;;9.10;99.20;;;;;;10499722;28;20614;-81
2023/02/20 07:26:01;;;;;;;7.10;5.53;;;9.20;98.80;;;;;;10519549;28;20288;-81
2023/02/20 07:31:05;;;;;;;11.63;8.20;;;9.30;98.40;;;;;;10486466;28;20231;-81
2023/02/20 07:36:08;;;;;;;17.43;10.37;;;9.30;98.30;;;;;;10485182;28;20744;-81
2023/02/20 07:41:10;;;;;;;7.73;6.00;;;9.30;98.10;;;;;;10485571;28;20221;-81
2023/02/20 07:46:14;;;;;;;6.00;5.50;;;9.40;98.10;;;;;;10486313;28;20598;-84
2023/02/20 07:51:16;;;;;;;9.47;6.03;;;9.40;98.50;;;;;;10484921;28;20223;-83
2023/02/20 07:56:20;;;;;;;8.40;5.43;;;9.50;98.70;;;;;;10490334;28;20219;-83
2023/02/20 08:01:24;;;;;;;8.03;5.20;;;9.50;99.30;;;;;;10466243;28;20247;-84
2023/02/20 08:06:27;;;;;;;6.40;5.80;;;9.70;98.50;;;;;;10484367;28;20224;-81
2023/02/20 08:11:33;;;;;;;5.20;4.03;;;9.80;98.30;;;;;;10467943;28;20247;-83
2023/02/20 08:16:37;;;;;;;8.70;4.90;;;9.80;98.30;;;;;;10482902;28;20288;-82
2023/02/20 08:21:39;;;;;;;6.20;4.80;;;9.90;98.30;;;;;;10463295;28;1080553;-80
2023/02/20 08:26:44;;;;;;;4.93;4.47;;;10.00;97.20;;;;;;10497770;28;20708;-80
2023/02/20 08:31:48;;;;;;;5.50;4.60;;;10.10;97.00;;;;;;10467490;28;20235;-83
2023/02/20 08:36:50;;;;;;;5.80;5.30;;;10.10;97.40;;;;;;10482022;28;20220;-83
2023/02/20 08:41:52;;;;;;;7.77;4.50;;;10.20;97.60;;;;;;10464204;28;20240;-82
2023/02/20 08:46:55;;;;;;;5.43;4.60;;;10.30;96.90;;;;;;10469889;28;20197;-81
2023/02/20 08:51:58;;;;;;;6.00;4.87;;;10.30;96.80;;;;;;10499024;28;20295;-80
2023/02/20 08:57:00;;;;;;;6.50;4.23;;;10.40;97.10;;;;;;10461821;28;20221;-81
2023/02/20 09:02:03;;;;;;;6.53;3.67;;;10.50;97.00;;;;;;10478613;28;20221;-81
2023/02/20 09:07:05;;;;;;;5.93;4.00;;;10.60;96.50;;;;;;10471846;28;20190;-82
2023/02/20 09:12:09;;;;;;;6.47;3.77;;;10.70;96.40;;;;;;10466215;28;20225;-82
2023/02/20 09:17:12;;;;;;;11.30;4.70;;;10.80;95.90;;;;;;10462205;28;20220;-83
2023/02/20 09:22:15;;;;;;;6.00;3.80;;;10.90;96.20;;;;;;10501114;28;20225;-81
2023/02/20 09:27:17;;;;;;;5.07;3.70;;;11.10;95.90;;;;;;10468491;28;20194;-82
2023/02/20 09:32:21;;;;;;;7.00;3.73;;;11.20;95.50;;;;;;10460260;28;20228;-82
2023/02/20 09:37:23;;;;;;;8.07;3.57;;;11.20;95.50;;;;;;10475515;28;20218;-81
2023/02/20 09:42:34;;;;;;;4.80;3.10;;;11.40;95.10;;;;;;10447168;28;20217;-81
2023/02/20 09:47:55;;;;;;;4.63;3.27;;;11.60;95.00;;;;;;10462024;28;20272;-81
2023/02/20 09:53:03;;;;;;;9.13;3.50;;;11.80;94.30;;;;;;10457291;28;20217;-82
2023/02/20 09:58:07;;;;;;;4.20;3.07;;;12.10;94.10;;;;;;10474870;28;20583;-82
2023/02/20 10:03:20;;;;;;;3.63;2.93;;;12.30;93.90;;;;;;10456444;28;20213;-82
2023/02/20 10:08:24;;;;;;;4.83;3.13;;;12.40;94.00;;;;;;10474118;28;20186;-81
2023/02/20 10:13:38;;;;;;;4.03;2.73;;;12.40;94.00;;;;;;10484717;28;20223;-81
2023/02/20 10:18:50;;;;;;;2.90;2.50;;;12.50;94.30;;;;;;10459400;28;20321;-83
2023/02/20 10:23:59;;;;;;;6.10;2.67;;;12.50;94.00;;;;;;10463087;28;20652;-82
2023/02/20 10:29:14;;;;;;;6.73;3.77;;;12.50;93.80;;;;;;10480194;28;20664;-83
2023/02/20 10:34:22;;;;;;;4.53;2.90;;;12.50;93.30;;;;;;10458370;28;20275;-82
2023/02/20 10:39:25;;;;;;;6.73;3.60;;;12.50;93.40;;;;;;10458789;28;20231;-83
2023/02/20 10:44:31;;;;;;;3.53;3.10;;;12.50;93.00;;;;;;10478084;28;20210;-82
2023/02/20 10:49:41;;;;;;;4.80;2.80;;;12.50;93.10;;;;;;10491162;28;20204;-82
2023/02/20 10:54:50;;;;;;;6.23;3.33;;;12.40;93.60;;;;;;10468302;28;20261;-83
2023/02/20 11:00:01;;;;;;;5.63;3.20;;;12.40;93.70;;;;;;10485581;28;20252;-83
2023/02/20 11:05:09;;;;;;;7.63;3.67;;;12.30;94.00;;;;;;10479849;28;20201;-83
2023/02/20 11:10:11;;;;;;;4.37;2.93;;;12.30;94.90;;;;;;10483379;28;20197;-83
2023/02/20 11:15:16;;;;;;;5.90;2.80;;;12.30;93.40;;;;;;10480787;28;20211;-82
2023/02/20 11:20:41;;;;;;;4.90;2.83;;;12.30;94.20;;;;;;10484453;28;20235;-82
2023/02/20 11:25:43;;;;;;;3.73;2.47;;;12.30;94.70;;;;;;10498927;28;20207;-83
2023/02/20 11:30:47;;;;;;;3.60;3.03;;;12.30;94.80;;;;;;10550365;28;20220;-83
2023/02/20 11:35:55;;;;;;;4.03;2.33;;;12.30;94.30;;;;;;10512569;28;20213;-82
2023/02/20 11:41:23;;;;;;;2.70;2.33;;;12.40;93.50;;;;;;10514646;28;20231;-83
2023/02/20 11:46:25;;;;;;;6.90;3.00;;;12.50;92.60;;;;;;10537049;28;20204;-82
2023/02/20 11:51:37;;;;;;;5.40;3.60;;;12.60;93.30;;;;;;10490321;28;20735;-83
2023/02/20 11:56:44;;;;;;;4.90;2.90;;;12.60;93.80;;;;;;10526450;28;20202;-83
2023/02/20 12:01:46;;;;;;;2.13;1.93;;;12.60;93.80;;;;;;10492314;28;20636;-83
2023/02/20 12:06:50;;;;;;;4.50;2.67;;;12.70;93.30;;;;;;10522884;28;20200;-83
2023/02/20 12:11:56;;;;;;;7.67;6.90;;;12.80;92.30;;;;;;10473072;28;20217;-83
2023/02/20 12:17:10;;;;;;;3.37;2.73;;;12.90;92.30;;;;;;10478411;28;20212;-84
2023/02/20 12:22:19;;;;;;;7.97;2.57;;;13.00;92.50;;;;;;10484918;28;20294;-83
2023/02/20 12:27:54;;;;;;;3.47;2.07;;;13.00;92.10;;;;;;10525076;28;20235;-83
2023/02/20 12:33:10;;;;;;;4.80;2.50;;;13.20;92.10;;;;;;10477600;28;20230;-83
2023/02/20 12:38:39;;;;;;;2.40;2.20;;;13.20;93.40;;;;;;10522563;28;20226;-83
2023/02/20 12:43:49;;;;;;;2.20;1.70;;;13.20;93.00;;;;;;10484052;28;20220;-84
2023/02/20 12:49:17;;;;;;;4.13;2.07;;;13.20;91.30;;;;;;10532523;28;20275;-84
2023/02/20 12:54:32;;;;;;;6.43;1.90;;;13.20;91.20;;;;;;10478206;28;20219;-84
2023/02/20 12:59:44;;;;;;;2.37;1.90;;;13.30;91.50;;;;;;10487248;28;20240;-84
2023/02/20 13:04:53;;;;;;;2.60;1.63;;;13.20;92.90;;;;;;10499727;28;20256;-82
2023/02/20 13:10:04;;;;;;;1.90;1.80;;;13.20;92.50;;;;;;10509456;28;20588;-84
2023/02/20 13:15:27;;;;;;;3.40;2.30;;;13.20;91.30;;;;;;10503210;28;20246;-84
2023/02/20 13:20:34;;;;;;;2.67;2.00;;;13.30;92.20;;;;;;10489803;28;20676;-84
2023/02/20 13:25:41;;;;;;;2.97;2.20;;;13.30;92.50;;;;;;10509775;28;20658;-84
2023/02/20 13:30:43;;;;;;;5.13;2.20;;;13.20;93.50;;;;;;10479194;28;20225;-84
2023/02/20 13:35:52;;;;;;;3.30;2.17;;;13.20;92.80;;;;;;10461937;28;20212;-83
2023/02/20 13:41:06;;;;;;;2.03;1.83;;;13.20;91.90;;;;;;10467812;28;20501;-84
2023/02/20 13:46:13;;;;;;;1.87;1.73;;;13.30;91.50;;;;;;10453724;28;20194;-84
2023/02/20 13:51:35;;;;;;;4.23;2.33;;;13.30;91.10;;;;;;10462149;28;20696;-83
2023/02/20 13:56:47;;;;;;;7.97;5.73;;;13.40;92.00;;;;;;10461736;28;20209;-84
2023/02/20 14:02:03;;;;;;;3.03;2.80;;;13.40;91.40;;;;;;10461091;28;20248;-82
2023/02/20 14:07:05;;;;;;;1.70;1.60;;;13.40;89.50;;;;;;10461327;28;20193;-84
2023/02/20 14:12:13;;;;;;;2.10;2.00;;;13.50;85.30;;;;;;10460108;28;20670;-83
2023/02/20 14:17:19;;;;;;;2.17;1.83;;;13.60;83.00;;;;;;10470749;28;20222;-82
2023/02/20 14:22:24;;;;;;;4.40;1.50;;;13.70;87.40;;;;;;10493156;28;20280;-83
2023/02/20 14:27:31;;;;;;;1.50;1.40;;;13.80;76.50;;;;;;10479686;28;20194;-82
2023/02/20 14:32:34;;;;;;;1.90;1.80;;;14.00;75.90;;;;;;10462344;28;20214;-83
2023/02/20 14:37:44;;;;;;;3.10;1.70;;;14.20;75.50;;;;;;10469682;28;20218;-83
2023/02/20 14:42:48;;;;;;;1.73;1.63;;;14.20;76.10;;;;;;10457248;28;20267;-83
2023/02/20 14:47:51;;;;;;;1.50;1.40;;;14.20;74.40;;;;;;10464609;28;20216;-82
2023/02/20 14:53:13;;;;;;;1.97;1.60;;;14.20;78.40;;;;;;10479924;28;20236;-83
2023/02/20 14:58:22;;;;;;;2.90;2.37;;;14.10;81.30;;;;;;10508335;28;20213;-82
2023/02/20 15:03:26;;;;;;;1.90;1.80;;;14.10;78.50;;;;;;10484139;28;20209;-82
2023/02/20 15:08:32;;;;;;;1.47;1.37;;;14.00;76.70;;;;;;10489380;28;20191;-82
2023/02/20 15:13:38;;;;;;;1.70;1.60;;;14.00;79.00;;;;;;10484899;28;20205;-82
2023/02/20 15:18:43;;;;;;;1.73;1.40;;;14.00;81.30;;;;;;10484777;28;20213;-81
2023/02/20 15:23:46;;;;;;;1.70;1.60;;;13.90;84.20;;;;;;10482558;28;20639;-81
2023/02/20 15:29:09;;;;;;;2.23;2.00;;;13.80;81.80;;;;;;10508541;28;20190;-82
2023/02/20 15:34:18;;;;;;;1.63;1.40;;;13.80;80.50;;;;;;10505664;28;20205;-82
2023/02/20 15:39:20;;;;;;;1.93;1.83;;;13.80;81.10;;;;;;10488915;28;20637;-81
2023/02/20 15:44:24;;;;;;;2.67;1.60;;;13.80;80.60;;;;;;10487172;28;20201;-80
2023/02/20 15:49:26;;;;;;;1.70;1.60;;;13.80;75.40;;;;;;10503104;28;20197;-81
2023/02/20 15:54:28;;;;;;;1.70;1.60;;;13.90;80.50;;;;;;10474667;28;20283;-79
2023/02/20 15:59:32;;;;;;;3.00;1.73;;;13.80;73.60;;;;;;10442895;28;20241;-81
2023/02/20 16:04:34;;;;;;;3.73;1.73;;;13.80;79.30;;;;;;10493267;28;20508;-81
2023/02/20 16:09:36;;;;;;;2.10;2.00;;;13.80;77.20;;;;;;10476739;28;20212;-80
2023/02/20 16:14:39;;;;;;;2.30;2.20;;;13.80;75.50;;;;;;10476829;28;20303;-80
2023/02/20 16:19:41;;;;;;;2.90;2.27;;;13.70;81.20;;;;;;10496385;28;20308;-80
2023/02/20 16:24:44;;;;;;;3.70;2.10;;;13.60;80.40;;;;;;10494717;28;20595;-80
2023/02/20 16:29:48;;;;;;;2.27;2.07;;;13.50;83.00;;;;;;10496760;28;20209;-80
2023/02/20 16:34:51;;;;;;;2.60;1.90;;;13.40;82.10;;;;;;10493119;28;20473;-80
2023/02/20 16:39:53;;;;;;;2.40;2.20;;;13.40;75.70;;;;;;10490066;28;20249;-80
2023/02/20 16:44:58;;;;;;;2.37;1.90;;;13.40;75.40;;;;;;10478808;28;20217;-83
2023/02/20 16:50:06;;;;;;;4.63;2.03;;;13.20;76.30;;;;;;10460103;28;20324;-81
2023/02/20 16:55:19;;;;;;;4.57;2.20;;;13.10;76.60;;;;;;10473138;28;20192;-81
2023/02/20 17:00:25;;;;;;;2.97;2.60;;;12.90;77.10;;;;;;10465383;28;20218;-82
2023/02/20 17:05:30;;;;;;;2.63;2.40;;;12.70;77.70;;;;;;10486095;28;20199;-81
2023/02/20 17:10:33;;;;;;;2.50;2.30;;;12.50;77.80;;;;;;10482646;28;20213;-82
2023/02/20 17:15:38;;;;;;;4.17;2.87;;;12.30;78.10;;;;;;10482961;28;20983;-81
2023/02/20 17:20:40;;;;;;;4.03;3.63;;;12.20;78.10;;;;;;10460906;28;20226;-81
2023/02/20 17:25:43;;;;;;;5.00;4.40;;;12.00;79.20;;;;;;10450938;28;20201;-81
2023/02/20 17:30:51;;;;;;;6.07;5.57;;;11.90;78.60;;;;;;10502046;28;20267;-81
2023/02/20 17:35:53;;;;;;;18.50;12.43;;;11.80;79.70;;;;;;10466020;28;20185;-81
2023/02/20 17:40:57;;;;;;;3.57;3.30;;;11.60;78.70;;;;;;10486833;28;20221;-81
2023/02/20 17:46:00;;;;;;;3.80;2.20;;;11.50;77.90;;;;;;10517460;28;20228;-82
2023/02/20 17:51:02;;;;;;;6.20;4.10;;;11.50;78.00;;;;;;10487062;28;20520;-82
2023/02/20 17:56:05;;;;;;;2.53;2.33;;;11.30;78.10;;;;;;10487961;28;20215;-83
2023/02/20 18:01:10;;;;;;;3.57;3.20;;;11.20;77.90;;;;;;10510196;28;20237;-83
2023/02/20 18:06:13;;;;;;;3.93;2.70;;;11.00;77.40;;;;;;10482527;28;20199;-83
2023/02/20 18:11:15;;;;;;;4.70;3.03;;;11.00;77.70;;;;;;10470500;28;20221;-83
2023/02/20 18:16:18;;;;;;;25.10;8.30;;;10.90;77.00;;;;;;10504418;28;20337;-83
2023/02/20 18:21:23;;;;;;;4.33;2.40;;;10.80;76.90;;;;;;10474384;28;20591;-82
2023/02/20 18:26:25;;;;;;;4.30;2.93;;;10.70;77.10;;;;;;10506047;28;20221;-82
2023/02/20 18:31:28;;;;;;;4.03;3.73;;;10.70;76.90;;;;;;10502711;28;20236;-82
2023/02/20 18:36:30;;;;;;;12.10;5.77;;;10.60;77.40;;;;;;10488935;28;20231;-83
2023/02/20 18:41:33;;;;;;;18.70;9.00;;;10.50;79.20;;;;;;10487263;28;20320;-83
2023/02/20 18:46:38;;;;;;;4.70;3.90;;;10.50;79.20;;;;;;10489787;28;20208;-83
2023/02/20 18:51:42;;;;;;;9.27;6.27;;;10.50;79.40;;;;;;10500907;28;20208;-82
2023/02/20 18:56:46;;;;;;;4.53;4.10;;;10.50;80.10;;;;;;10487117;28;20543;-82
2023/02/20 19:01:50;;;;;;;4.17;3.77;;;10.50;80.30;;;;;;10470139;28;20220;-82
2023/02/20 19:06:52;;;;;;;11.30;4.63;;;10.50;80.50;;;;;;10475128;28;20196;-82
2023/02/20 19:11:56;;;;;;;4.73;3.73;;;10.40;81.10;;;;;;10473593;28;20213;-82
2023/02/20 19:17:07;;;;;;;4.43;3.50;;;10.30;81.40;;;;;;10484404;28;20225;-82
2023/02/20 19:22:09;;;;;;;4.40;3.50;;;10.20;81.90;;;;;;10487321;28;20695;-82
2023/02/20 19:27:11;;;;;;;8.87;3.10;;;10.20;81.70;;;;;;10490211;28;20204;-80
2023/02/20 19:32:14;;;;;;;3.93;3.57;;;10.10;82.40;;;;;;10496615;28;20273;-81
2023/02/20 19:37:17;;;;;;;3.97;3.20;;;10.00;83.50;;;;;;10503372;28;20221;-80
2023/02/20 19:42:20;;;;;;;4.33;3.40;;;10.00;83.50;;;;;;10492958;28;20566;-80
2023/02/20 19:47:23;;;;;;;4.70;4.30;;;10.00;83.10;;;;;;10469637;28;20193;-81
2023/02/20 19:52:25;;;;;;;4.27;3.87;;;10.00;83.00;;;;;;10487655;28;20221;-81
2023/02/20 19:57:27;;;;;;;6.50;4.00;;;9.90;84.70;;;;;;10463949;28;20265;-80
2023/02/20 20:02:31;;;;;;;3.27;2.90;;;9.80;84.90;;;;;;10474985;28;20228;-81
2023/02/20 20:07:33;;;;;;;3.50;3.20;;;9.80;86.30;;;;;;10500408;28;20197;-81
2023/02/20 20:12:47;;;;;;;5.27;4.77;;;9.80;85.20;;;;;;10464074;28;20223;-81
2023/02/20 20:17:52;;;;;;;3.50;3.00;;;9.70;85.30;;;;;;10497107;28;20238;-81
2023/02/20 20:22:57;;;;;;;4.27;3.20;;;9.70;85.30;;;;;;10562508;22;20344;-81
2023/02/20 20:28:01;;;;;;;4.00;3.53;;;9.70;85.40;;;;;;10600416;27;20583;-81
2023/02/20 20:33:05;;;;;;;3.37;3.17;;;9.60;85.40;;;;;;10592910;27;20267;-80
2023/02/20 20:38:08;;;;;;;3.53;3.23;;;9.60;85.20;;;;;;10566418;27;20247;-80
2023/02/20 20:43:13;;;;;;;6.70;5.37;;;9.50;87.20;;;;;;10567373;28;20222;-82
2023/02/20 20:48:16;;;;;;;5.33;4.83;;;9.50;87.50;;;;;;10562530;27;20288;-79
2023/02/20 20:53:18;;;;;;;7.70;6.90;;;9.50;86.70;;;;;;10553460;27;20299;-81
2023/02/20 20:58:20;;;;;;;6.53;4.63;;;9.40;87.60;;;;;;10561169;27;20328;-81
2023/02/20 21:03:24;;;;;;;5.37;4.87;;;9.40;87.00;;;;;;10544763;27;20761;-81
2023/02/20 21:08:26;;;;;;;6.10;5.60;;;9.40;86.90;;;;;;10537857;28;20283;-82
2023/02/20 21:13:28;;;;;;;6.00;5.50;;;9.40;87.00;;;;;;10569123;27;20251;-81
2023/02/20 21:18:32;;;;;;;8.43;4.33;;;9.30;87.00;;;;;;10591874;27;20293;-82
2023/02/20 21:23:34;;;;;;;11.30;9.90;;;9.30;87.80;;;;;;10532018;27;20745;-82
2023/02/20 21:28:36;;;;;;;4.33;3.37;;;9.30;87.30;;;;;;10546079;27;20187;-81
2023/02/20 21:33:40;;;;;;;4.03;3.70;;;9.20;87.40;;;;;;10560277;27;20250;-81
2023/02/20 21:38:42;;;;;;;3.87;3.50;;;9.10;87.80;;;;;;10585004;27;20287;-82
2023/02/20 21:49:05;;;;;;;4.90;3.93;;;9.10;87.80;;;;;;10594215;27;20202;-82
2023/02/20 21:54:07;;;;;;;7.23;4.40;;;9.10;88.70;;;;;;10619317;28;20234;-81
